Date,TemperatureHighF,TemperatureAvgF,TemperatureLowF,DewpointHighF,DewpointAvgF,DewpointLowF,HumidityHigh,HumidityAvg,HumidityLow,PressureMaxIn,PressureMinIn,WindSpeedMaxMPH,WindSpeedAvgMPH,GustSpeedMaxMPH,PrecipitationSumIn
2013-10-1,76.5,70.0,65.8,70.7,65.4,60.9,94,85,69,30.05,29.95,15,6,15,0.00
2013-10-2,80.8,73.2,69.5,72.1,68.8,65.7,94,86,69,30.06,29.97,16,7,16,0.00
2013-10-3,76.2,72.4,68.1,72.0,69.0,65.7,95,89,79,30.09,30.02,11,4,11,0.00
2013-10-4,80.2,73.3,69.2,74.6,70.9,68.4,100,93,72,30.07,29.99,11,3,11,0.00
2013-10-5,80.3,75.2,71.5,76.3,72.2,70.0,97,91,77,30.07,29.98,13,3,13,0.00
2013-10-6,83.1,76.0,72.5,74.9,72.4,71.2,98,89,74,30.02,29.93,23,6,23,0.00
2013-10-7,77.3,70.7,62.0,74.8,68.3,54.1,98,92,70,30.03,29.80,35,11,35,0.73
2013-10-8,64.1,61.4,59.3,55.6,52.8,50.8,83,74,68,30.25,30.02,29,4,29,0.00
2013-10-9,61.2,59.0,56.4,57.6,55.3,52.2,98,88,75,30.26,30.15,23,4,23,0.26
2013-10-10,61.8,58.4,56.1,61.8,58.3,55.6,100,100,98,30.15,29.91,23,4,23,1.05
2013-10-11,65.6,63.3,61.4,65.6,63.3,61.4,100,100,100,29.94,29.86,13,4,13,0.75
2013-10-12,65.8,63.3,61.7,64.6,63.1,61.6,100,99,95,30.11,29.93,14,3,14,0.15
2013-10-13,65.5,62.8,59.7,63.2,61.1,57.2,100,94,88,30.29,30.10,15,3,15,0.01
2013-10-14,66.6,60.9,56.0,61.5,58.1,54.6,98,91,81,30.30,30.21,14,3,14,0.00
2013-10-15,67.5,61.0,54.1,62.5,58.0,53.5,99,90,78,30.22,30.05,14,2,14,0.00
2013-10-16,67.2,63.6,59.0,65.8,62.1,58.2,99,95,89,30.06,29.91,10,1,10,0.00
2013-10-17,70.7,67.8,65.6,68.6,66.6,64.8,99,96,91,29.91,29.73,23,9,23,0.00
2013-10-18,68.5,62.4,58.1,65.4,53.7,49.4,90,73,61,30.00,29.77,32,12,32,0.00
2013-10-19,64.2,61.3,57.6,63.6,57.2,50.6,98,87,73,29.99,29.78,23,5,23,0.02
2013-10-20,63.7,58.0,52.9,57.7,47.5,43.0,82,69,51,30.08,29.83,34,11,34,0.00
2013-10-21,64.1,60.7,57.9,57.7,52.1,46.3,85,74,55,30.15,29.95,21,7,21,0.00
2013-10-22,65.4,61.7,57.5,58.5,54.8,44.9,87,78,59,29.96,29.79,19,6,20,0.00
2013-10-23,57.8,52.0,45.8,48.9,45.8,41.7,97,80,58,29.86,29.63,29,8,29,0.17
2013-10-24,51.9,49.8,47.2,46.2,41.2,36.4,85,73,60,30.12,29.86,31,18,31,0.00
2013-10-25,54.4,49.6,45.4,43.9,41.4,39.6,83,74,63,30.30,30.11,29,17,29,0.00
2013-10-26,56.8,52.2,47.0,47.2,42.3,37.6,77,69,57,30.29,29.92,33,13,33,0.00
2013-10-27,59.9,54.9,49.7,49.7,46.2,43.3,96,73,59,30.13,29.92,26,9,26,0.00
2013-10-28,62.5,52.7,46.2,52.6,47.4,42.5,94,83,65,30.26,30.13,10,1,10,0.00
2013-10-29,60.7,52.9,46.4,54.2,49.0,43.4,96,87,70,30.36,30.25,12,2,12,0.00
2013-10-30,62.7,57.6,54.2,60.4,56.7,53.1,100,97,92,30.32,30.15,12,1,12,0.03
2013-10-31,66.3,62.1,57.4,64.2,60.6,57.1,100,95,87,30.18,29.81,26,6,26,0.01